createdAt,value
2022-08-14T00:01:31.388Z,25.30
2022-08-14T00:03:58.015Z,25.30
2022-08-14T00:06:25.555Z,25.30
2022-08-14T00:08:59.159Z,25.20
2022-08-14T00:11:28.741Z,25.20
2022-08-14T00:14:01.972Z,25.20
2022-08-14T00:16:41.711Z,25.30
2022-08-14T00:19:19.232Z,25.30
2022-08-14T00:21:52.368Z,25.20
2022-08-14T00:24:28.371Z,25.10
2022-08-14T00:26:58.412Z,25.10
2022-08-14T00:29:32.974Z,25.10
2022-08-14T00:32:50.503Z,25.10
2022-08-14T00:34:54.024Z,25.00
2022-08-14T00:37:20.989Z,25.00
2022-08-14T00:39:48.360Z,25.00
2022-08-14T00:42:52.558Z,24.90
2022-08-14T00:45:13.801Z,24.90
2022-08-14T00:47:44.780Z,24.90
2022-08-14T00:50:18.087Z,24.90
2022-08-14T00:52:50.898Z,24.90
2022-08-14T00:55:19.898Z,24.90
2022-08-14T00:58:07.695Z,24.90
2022-08-14T01:00:43.082Z,24.90
2022-08-14T01:03:20.123Z,25.00
2022-08-14T01:05:51.586Z,25.00
2022-08-14T01:08:57.728Z,25.00
2022-08-14T01:11:09.727Z,25.00
2022-08-14T01:13:42.630Z,24.90
2022-08-14T01:16:14.869Z,24.90
2022-08-14T01:19:02.386Z,24.90
2022-08-14T01:21:47.232Z,24.80
2022-08-14T01:24:22.865Z,24.80
2022-08-14T01:27:00.191Z,24.80
2022-08-14T01:29:58.659Z,24.90
2022-08-14T01:32:22.888Z,24.70
2022-08-14T01:35:20.627Z,24.70
2022-08-14T01:37:46.827Z,24.70
2022-08-14T01:40:25.675Z,24.60
2022-08-14T01:43:07.687Z,24.70
2022-08-14T01:45:40.766Z,24.60
2022-08-14T01:48:13.374Z,24.60
2022-08-14T01:50:41.775Z,24.60
2022-08-14T01:53:08.891Z,24.60
2022-08-14T01:55:39.186Z,24.60
2022-08-14T01:58:20.305Z,24.50
2022-08-14T02:00:54.154Z,24.50
2022-08-14T02:03:23.078Z,24.50
2022-08-14T02:05:49.839Z,24.50
2022-08-14T02:08:22.552Z,24.50
2022-08-14T02:11:17.105Z,24.50
2022-08-14T02:13:47.581Z,24.50
2022-08-14T02:16:22.296Z,24.50
2022-08-14T02:18:49.941Z,24.50
2022-08-14T02:21:18.407Z,24.60
2022-08-14T02:23:49.245Z,24.60
2022-08-14T02:26:30.645Z,24.50
2022-08-14T02:29:00.534Z,24.50
2022-08-14T02:31:36.369Z,24.40
2022-08-14T02:34:26.054Z,24.30
2022-08-14T02:37:03.421Z,24.30
2022-08-14T02:39:36.097Z,24.30
2022-08-14T02:42:04.393Z,24.20
2022-08-14T02:44:31.326Z,24.20
2022-08-14T02:47:14.928Z,24.20
2022-08-14T02:49:45.865Z,24.10
2022-08-14T02:52:56.264Z,24.10
2022-08-14T02:55:05.688Z,24.00
2022-08-14T02:57:39.734Z,24.00
2022-08-14T03:00:10.232Z,24.00
2022-08-14T03:02:55.857Z,23.90
2022-08-14T03:05:25.755Z,24.00
2022-08-14T03:07:53.541Z,24.00
2022-08-14T03:10:26.588Z,24.00
2022-08-14T03:12:59.011Z,24.00
2022-08-14T03:15:27.658Z,24.10
2022-08-14T03:17:57.458Z,24.00
2022-08-14T03:20:28.566Z,24.00
2022-08-14T03:22:59.323Z,24.00
2022-08-14T03:25:27.013Z,24.00
2022-08-14T03:27:58.353Z,24.00
2022-08-14T03:30:38.820Z,24.00
2022-08-14T03:33:10.372Z,24.00
2022-08-14T03:36:07.891Z,23.90
2022-08-14T03:39:13.949Z,23.90
2022-08-14T03:41:19.756Z,23.90
2022-08-14T03:43:57.394Z,23.90
2022-08-14T03:46:52.166Z,23.90
2022-08-14T03:49:24.217Z,23.90
2022-08-14T03:51:55.439Z,23.80
2022-08-14T03:54:24.505Z,23.80
2022-08-14T03:56:51.140Z,23.70
2022-08-14T03:59:19.833Z,23.70
2022-08-14T04:01:57.959Z,23.60
2022-08-14T04:04:30.527Z,23.50
2022-08-14T04:06:59.174Z,23.50
2022-08-14T04:09:27.068Z,23.50
2022-08-14T04:11:54.402Z,23.50
2022-08-14T04:14:23.696Z,23.50
2022-08-14T04:16:50.679Z,23.40
2022-08-14T04:19:20.429Z,23.40
2022-08-14T04:22:02.458Z,23.30
2022-08-14T04:24:30.770Z,23.30
2022-08-14T04:27:04.463Z,23.30
2022-08-14T04:29:32.622Z,23.30
2022-08-14T04:33:00.756Z,23.30
2022-08-14T04:34:52.085Z,23.30
2022-08-14T04:37:45.190Z,23.30
2022-08-14T04:40:32.011Z,23.20
2022-08-14T04:43:17.675Z,23.20
2022-08-14T04:45:45.128Z,23.30
2022-08-14T04:48:13.812Z,23.30
2022-08-14T04:51:01.243Z,23.20
2022-08-14T04:53:34.655Z,23.20
2022-08-14T04:56:02.751Z,23.20
2022-08-14T04:58:32.144Z,23.20
2022-08-14T05:01:00.702Z,23.10
2022-08-14T05:03:33.184Z,23.10
2022-08-14T05:06:02.303Z,23.10
2022-08-14T05:08:31.663Z,23.10
2022-08-14T05:11:13.324Z,23.00
2022-08-14T05:13:59.611Z,23.10
2022-08-14T05:16:31.471Z,23.10
2022-08-14T05:19:24.890Z,23.10
2022-08-14T05:21:59.923Z,23.10
2022-08-14T05:24:28.831Z,23.10
2022-08-14T05:26:55.849Z,23.10
2022-08-14T05:29:23.292Z,23.10
2022-08-14T05:31:50.523Z,23.20
2022-08-14T05:34:28.920Z,23.20
2022-08-14T05:37:01.951Z,23.30
2022-08-14T05:39:31.240Z,23.30
2022-08-14T05:41:58.343Z,23.30
2022-08-14T05:44:29.631Z,23.40
2022-08-14T05:46:57.532Z,23.50
2022-08-14T05:49:26.204Z,23.50
2022-08-14T05:52:03.424Z,23.50
2022-08-14T05:54:36.611Z,23.60
2022-08-14T05:57:05.985Z,23.70
2022-08-14T05:59:39.324Z,23.70
2022-08-14T06:02:10.989Z,23.70
2022-08-14T06:04:38.989Z,23.70
2022-08-14T06:07:06.245Z,23.80
2022-08-14T06:09:35.841Z,23.80
2022-08-14T06:12:11.871Z,23.90
2022-08-14T06:14:39.142Z,24.00
2022-08-14T06:17:06.760Z,24.00
2022-08-14T06:19:33.495Z,24.10
2022-08-14T06:22:00.148Z,24.10
2022-08-14T06:24:30.704Z,24.20
2022-08-14T06:27:03.836Z,24.20
2022-08-14T06:29:33.564Z,24.20
2022-08-14T06:32:37.742Z,24.20
2022-08-14T06:35:02.421Z,24.10
2022-08-14T06:37:39.736Z,24.20
2022-08-14T06:40:16.496Z,24.40
2022-08-14T06:42:53.231Z,24.40
2022-08-14T06:45:21.903Z,24.40
2022-08-14T06:47:54.008Z,24.50
2022-08-14T06:50:28.002Z,24.60
2022-08-14T06:52:59.556Z,24.70
2022-08-14T06:55:28.357Z,24.80
2022-08-14T06:57:56.557Z,24.80
2022-08-14T07:00:31.184Z,24.80
2022-08-14T07:03:17.714Z,24.90
2022-08-14T07:05:55.360Z,25.00
2022-08-14T07:08:29.639Z,25.10
2022-08-14T07:11:03.307Z,25.20
2022-08-14T07:13:30.689Z,25.30
2022-08-14T07:15:58.966Z,25.40
2022-08-14T07:18:30.487Z,25.50
2022-08-14T07:20:59.663Z,25.40
2022-08-14T07:23:27.182Z,25.50
2022-08-14T07:25:56.564Z,25.50
2022-08-14T07:28:28.437Z,25.60
2022-08-14T07:31:04.707Z,25.60
2022-08-14T07:33:43.604Z,25.70
2022-08-14T07:36:27.513Z,25.70
2022-08-14T07:38:59.466Z,25.80
2022-08-14T07:41:33.989Z,26.00
2022-08-14T07:44:29.022Z,26.10
2022-08-14T07:46:49.846Z,26.20
2022-08-14T07:49:17.817Z,26.20
2022-08-14T07:51:45.493Z,26.30
2022-08-14T07:54:12.469Z,26.50
2022-08-14T07:56:47.510Z,26.50
2022-08-14T07:59:18.343Z,26.50
2022-08-14T08:01:51.087Z,26.70
2022-08-14T08:04:24.133Z,26.70
2022-08-14T08:06:52.343Z,26.90
2022-08-14T08:09:24.260Z,27.00
2022-08-14T08:11:54.613Z,27.20
2022-08-14T08:14:25.192Z,27.30
2022-08-14T08:16:54.304Z,27.40
2022-08-14T08:19:20.983Z,27.40
2022-08-14T08:21:48.204Z,27.40
2022-08-14T08:24:18.590Z,27.50
2022-08-14T08:26:48.173Z,27.50
2022-08-14T08:29:25.106Z,27.50
2022-08-14T08:31:55.669Z,27.40
2022-08-14T08:34:23.530Z,27.40
2022-08-14T08:36:51.591Z,27.40
2022-08-14T08:39:22.429Z,27.50
2022-08-14T08:41:53.672Z,27.50
2022-08-14T08:44:31.782Z,27.70
2022-08-14T08:47:05.440Z,28.00
2022-08-14T08:49:48.451Z,28.10
2022-08-14T08:52:24.573Z,28.20
2022-08-14T08:54:55.863Z,28.20
2022-08-14T08:57:22.455Z,28.40
2022-08-14T08:59:55.000Z,28.60
2022-08-14T09:02:22.589Z,28.70
2022-08-14T09:05:03.803Z,28.80
2022-08-14T09:07:31.103Z,28.90
2022-08-14T09:09:59.926Z,28.90
2022-08-14T09:12:32.213Z,29.10
2022-08-14T09:15:01.805Z,29.10
2022-08-14T09:17:28.784Z,29.10
2022-08-14T09:19:56.258Z,29.20
2022-08-14T09:22:34.718Z,29.20
2022-08-14T09:25:03.993Z,29.20
2022-08-14T09:27:34.892Z,29.40
2022-08-14T09:30:01.940Z,29.40
2022-08-14T09:33:09.028Z,29.60
2022-08-14T09:36:02.958Z,29.70
2022-08-14T09:38:57.511Z,29.90
2022-08-14T09:42:20.314Z,30.10
2022-08-14T09:44:45.697Z,30.20
2022-08-14T09:47:14.908Z,30.20
2022-08-14T09:49:52.242Z,30.40
2022-08-14T09:52:32.767Z,30.40
2022-08-14T09:55:02.582Z,30.50
2022-08-14T09:57:31.562Z,30.60
2022-08-14T10:00:09.823Z,30.60
2022-08-14T10:03:05.292Z,30.60
2022-08-14T10:05:34.992Z,30.60
2022-08-14T10:08:25.347Z,30.70
2022-08-14T10:11:02.326Z,30.70
2022-08-14T10:13:42.836Z,30.70
2022-08-14T10:16:25.943Z,30.80
2022-08-14T10:19:12.007Z,30.90
2022-08-14T10:21:58.617Z,30.80
2022-08-14T10:24:37.371Z,30.80
2022-08-14T10:27:05.425Z,30.80
2022-08-14T10:29:34.581Z,31.00
2022-08-14T10:32:03.731Z,31.10
2022-08-14T10:34:46.405Z,31.00
2022-08-14T10:37:27.872Z,31.00
2022-08-14T10:40:10.391Z,30.80
2022-08-14T10:42:48.958Z,30.80
2022-08-14T10:45:21.067Z,31.00
2022-08-14T10:48:07.973Z,31.10
2022-08-14T10:50:41.273Z,31.20
2022-08-14T10:53:09.273Z,31.30
2022-08-14T10:55:45.579Z,31.30
2022-08-14T10:58:14.056Z,31.40
2022-08-14T11:00:55.516Z,31.30
2022-08-14T11:03:26.709Z,31.30
2022-08-14T11:06:16.220Z,31.20
2022-08-14T11:08:42.995Z,31.30
2022-08-14T11:11:12.547Z,31.20
2022-08-14T11:13:44.226Z,31.10
2022-08-14T11:16:11.090Z,31.10
2022-08-14T11:18:40.458Z,31.10
2022-08-14T11:21:08.257Z,31.00
2022-08-14T11:23:43.710Z,31.10
2022-08-14T11:26:11.976Z,31.00
2022-08-14T11:28:48.116Z,30.90
2022-08-14T11:31:19.954Z,30.90
2022-08-14T11:33:55.479Z,30.90
2022-08-14T11:36:23.808Z,30.80
2022-08-14T11:39:02.173Z,30.80
2022-08-14T11:41:29.076Z,30.90
2022-08-14T11:43:59.717Z,30.80
2022-08-14T11:46:30.405Z,30.90
2022-08-14T11:49:05.492Z,30.90
2022-08-14T11:51:36.133Z,30.90
2022-08-14T11:54:19.635Z,30.90
2022-08-14T11:56:49.794Z,31.00
2022-08-14T11:59:19.932Z,31.00
2022-08-14T12:01:54.812Z,31.10
2022-08-14T12:04:33.008Z,31.10
2022-08-14T12:07:01.268Z,31.10
2022-08-14T12:09:33.956Z,31.10
2022-08-14T12:12:35.511Z,31.10
2022-08-14T12:15:04.291Z,31.20
2022-08-14T12:17:49.285Z,31.20
2022-08-14T12:20:32.046Z,31.00
2022-08-14T12:23:20.018Z,31.10
2022-08-14T12:25:46.657Z,31.20
2022-08-14T12:28:33.821Z,31.20
2022-08-14T12:31:20.647Z,31.30
2022-08-14T12:34:01.345Z,31.30
2022-08-14T12:36:31.236Z,31.40
2022-08-14T12:39:05.036Z,31.40
2022-08-14T12:41:38.836Z,31.50
2022-08-14T12:44:07.045Z,31.40
2022-08-14T12:46:43.747Z,31.50
2022-08-14T12:49:17.031Z,31.50
2022-08-14T12:51:56.440Z,31.50
2022-08-14T12:54:28.246Z,31.50
2022-08-14T12:57:18.654Z,31.60
2022-08-14T12:59:46.949Z,31.70
2022-08-14T13:02:26.268Z,31.90
2022-08-14T13:04:55.456Z,32.00
2022-08-14T13:07:22.155Z,32.00
2022-08-14T13:09:55.425Z,32.10
2022-08-14T13:12:31.782Z,32.30
2022-08-14T13:15:09.360Z,32.50
2022-08-14T13:17:48.203Z,32.70
2022-08-14T13:20:24.632Z,32.80
2022-08-14T13:22:54.972Z,32.80
2022-08-14T13:25:25.336Z,32.80
2022-08-14T13:27:55.189Z,32.90
2022-08-14T13:30:24.858Z,33.00
2022-08-14T13:32:57.845Z,33.00
2022-08-14T13:35:26.032Z,33.10
2022-08-14T13:37:53.520Z,33.10
2022-08-14T13:40:26.721Z,33.10
2022-08-14T13:42:55.341Z,33.10
2022-08-14T13:45:59.640Z,33.10
2022-08-14T13:48:27.213Z,33.10
2022-08-14T13:51:01.565Z,33.10
2022-08-14T13:53:33.117Z,33.00
2022-08-14T13:56:01.352Z,33.10
2022-08-14T13:58:34.362Z,33.00
2022-08-14T14:01:02.040Z,32.20
2022-08-14T14:03:38.073Z,31.70
2022-08-14T14:06:06.970Z,31.90
2022-08-14T14:08:46.183Z,31.80
2022-08-14T14:11:22.509Z,31.60
2022-08-14T14:13:51.640Z,31.60
2022-08-14T14:16:26.525Z,31.80
2022-08-14T14:19:09.390Z,31.90
2022-08-14T14:21:37.203Z,32.10
2022-08-14T14:24:05.379Z,32.30
2022-08-14T14:26:33.371Z,32.50
2022-08-14T14:29:06.120Z,32.60
2022-08-14T14:31:38.728Z,32.80
2022-08-14T14:34:12.592Z,33.10
2022-08-14T14:36:55.448Z,33.30
2022-08-14T14:39:27.801Z,33.70
2022-08-14T14:41:59.472Z,33.90
2022-08-14T14:44:40.210Z,33.80
2022-08-14T14:47:09.979Z,33.90
2022-08-14T14:49:51.261Z,34.00
2022-08-14T14:52:26.786Z,33.80
2022-08-14T14:54:59.099Z,33.70
2022-08-14T14:57:34.962Z,33.50
2022-08-14T15:00:05.507Z,33.60
2022-08-14T15:02:37.055Z,33.60
2022-08-14T15:05:05.522Z,33.50
2022-08-14T15:07:33.063Z,33.40
2022-08-14T15:10:00.008Z,33.60
2022-08-14T15:12:55.866Z,33.60
2022-08-14T15:15:14.711Z,33.30
2022-08-14T15:17:43.066Z,32.90
2022-08-14T15:20:17.489Z,32.80
2022-08-14T15:22:57.458Z,33.00
2022-08-14T15:25:24.232Z,33.00
2022-08-14T15:27:54.371Z,33.00
2022-08-14T15:30:23.570Z,33.30
2022-08-14T15:32:51.598Z,33.40
2022-08-14T15:35:22.274Z,33.60
2022-08-14T15:37:55.821Z,33.50
2022-08-14T15:40:23.135Z,33.80
2022-08-14T15:42:49.863Z,33.70
2022-08-14T15:45:17.010Z,34.00
2022-08-14T15:47:43.963Z,34.30
2022-08-14T15:50:12.093Z,34.50
2022-08-14T15:52:41.423Z,34.60
2022-08-14T15:55:14.732Z,34.40
2022-08-14T15:58:01.253Z,34.50
2022-08-14T16:00:53.512Z,34.60
2022-08-14T16:03:27.497Z,34.30
2022-08-14T16:06:02.679Z,34.20
2022-08-14T16:08:30.728Z,34.20
2022-08-14T16:10:59.916Z,34.30
2022-08-14T16:13:41.102Z,34.10
2022-08-14T16:16:48.005Z,34.00
2022-08-14T16:19:11.603Z,33.70
2022-08-14T16:22:02.666Z,33.50
2022-08-14T16:24:32.927Z,33.30
2022-08-14T16:27:00.936Z,33.40
2022-08-14T16:29:31.601Z,33.40
2022-08-14T16:34:50.974Z,33.40
2022-08-14T16:37:22.541Z,33.80
2022-08-14T16:39:49.629Z,33.70
2022-08-14T16:43:03.198Z,33.70
2022-08-14T16:45:11.334Z,33.40
2022-08-14T16:47:38.351Z,33.30
2022-08-14T16:50:11.065Z,33.60
2022-08-14T16:52:45.126Z,33.80
2022-08-14T16:55:30.484Z,34.20
2022-08-14T16:57:58.791Z,34.20
2022-08-14T17:00:43.905Z,34.20
2022-08-14T17:03:12.771Z,34.40
2022-08-14T17:05:43.412Z,34.70
2022-08-14T17:08:32.370Z,34.70
2022-08-14T17:11:02.117Z,34.50
2022-08-14T17:13:57.785Z,34.60
2022-08-14T17:16:25.722Z,34.50
2022-08-14T17:19:00.834Z,34.60
2022-08-14T17:21:38.193Z,34.70
2022-08-14T17:24:56.166Z,34.60
2022-08-14T17:27:03.684Z,34.10
2022-08-14T17:29:33.788Z,33.50
2022-08-14T17:34:55.410Z,33.00
2022-08-14T17:37:30.328Z,32.80
2022-08-14T17:40:01.732Z,32.90
2022-08-14T17:42:53.409Z,32.80
2022-08-14T17:45:43.179Z,32.70
2022-08-14T17:49:16.350Z,32.80
2022-08-14T17:51:24.143Z,32.70
2022-08-14T17:54:02.452Z,32.60
2022-08-14T17:56:31.617Z,32.20
2022-08-14T17:59:05.172Z,32.30
2022-08-14T18:01:37.745Z,32.40
2022-08-14T18:04:24.375Z,32.40
2022-08-14T18:07:06.118Z,32.20
2022-08-14T18:09:40.148Z,31.70
2022-08-14T18:12:32.389Z,31.40
2022-08-14T18:15:16.556Z,31.50
2022-08-14T18:17:50.701Z,31.40
2022-08-14T18:21:41.926Z,31.10
2022-08-14T18:23:08.369Z,30.90
2022-08-14T18:25:51.925Z,30.90
2022-08-14T18:28:48.644Z,30.50
2022-08-14T18:31:20.355Z,30.40
2022-08-14T18:33:57.442Z,30.50
2022-08-14T18:36:52.747Z,30.30
2022-08-14T18:39:34.472Z,30.10
2022-08-14T18:42:23.539Z,30.10
2022-08-14T18:44:50.922Z,30.00
2022-08-14T18:47:24.226Z,29.90
2022-08-14T18:49:55.003Z,29.90
2022-08-14T18:52:39.032Z,29.70
2022-08-14T18:55:26.675Z,29.60
2022-08-14T18:57:58.024Z,29.40
2022-08-14T19:00:39.769Z,29.40
2022-08-14T19:03:10.863Z,29.30
2022-08-14T19:05:49.303Z,29.10
2022-08-14T19:08:21.988Z,29.10
2022-08-14T19:10:51.719Z,29.10
2022-08-14T19:13:48.613Z,29.10
2022-08-14T19:16:16.998Z,29.10
2022-08-14T19:18:53.670Z,29.00
2022-08-14T19:21:31.891Z,29.00
2022-08-14T19:24:27.193Z,28.70
2022-08-14T19:27:16.735Z,28.50
2022-08-14T19:29:47.879Z,28.30
2022-08-14T19:32:40.753Z,28.40
2022-08-14T19:35:18.373Z,28.40
2022-08-14T19:37:52.503Z,28.40
2022-08-14T19:40:34.205Z,28.40
2022-08-14T19:43:03.263Z,28.30
2022-08-14T19:45:34.297Z,28.30
2022-08-14T19:48:02.262Z,28.20
2022-08-14T19:50:40.508Z,28.20
2022-08-14T19:53:12.788Z,28.20
2022-08-14T19:55:47.111Z,28.20
2022-08-14T19:58:15.301Z,28.10
2022-08-14T20:00:52.381Z,28.10
2022-08-14T20:03:24.101Z,28.00
2022-08-14T20:06:03.207Z,27.80
2022-08-14T20:11:01.313Z,27.80
2022-08-14T20:12:00.229Z,28.00
2022-08-14T20:14:29.711Z,27.90
2022-08-14T20:17:05.962Z,27.80
2022-08-14T20:19:37.303Z,27.90
2022-08-14T20:22:37.329Z,27.80
2022-08-14T20:24:56.629Z,27.80
2022-08-14T20:27:34.323Z,27.70
2022-08-14T20:30:33.388Z,27.70
2022-08-14T20:33:07.765Z,27.70
2022-08-14T20:35:48.906Z,27.60
2022-08-14T20:38:30.972Z,27.50
2022-08-14T20:41:06.381Z,27.60
2022-08-14T20:43:57.607Z,27.50
2022-08-14T20:46:38.278Z,27.30
2022-08-14T20:49:16.027Z,27.20
2022-08-14T20:51:54.645Z,27.10
2022-08-14T20:54:33.773Z,27.10
2022-08-14T20:57:11.333Z,27.10
2022-08-14T20:59:44.630Z,27.10
2022-08-14T21:02:30.406Z,27.10
2022-08-14T21:05:16.157Z,27.00
2022-08-14T21:07:51.253Z,27.00
2022-08-14T21:10:33.529Z,26.90
2022-08-14T21:13:26.552Z,26.80
2022-08-14T21:15:57.116Z,26.80
2022-08-14T21:18:28.699Z,26.70
2022-08-14T21:20:58.096Z,26.70
2022-08-14T21:23:24.821Z,26.60
2022-08-14T21:26:01.170Z,26.50
2022-08-14T21:28:35.159Z,26.60
2022-08-14T21:31:04.475Z,26.50
2022-08-14T21:33:34.364Z,26.60
2022-08-14T21:36:07.495Z,26.60
2022-08-14T21:38:36.586Z,26.70
2022-08-14T21:41:35.288Z,26.70
2022-08-14T21:44:17.827Z,26.60
2022-08-14T21:46:53.380Z,26.60
2022-08-14T21:49:23.614Z,26.50
2022-08-14T21:52:49.832Z,26.40
2022-08-14T21:54:50.006Z,26.40
2022-08-14T21:57:20.887Z,26.40
2022-08-14T22:00:32.446Z,26.40
2022-08-14T22:03:00.553Z,26.40
2022-08-14T22:05:29.517Z,26.40
2022-08-14T22:07:56.673Z,26.40
2022-08-14T22:10:24.234Z,26.30
2022-08-14T22:13:00.037Z,26.30
2022-08-14T22:15:28.536Z,26.20
2022-08-14T22:17:55.436Z,26.20
2022-08-14T22:20:24.321Z,26.10
2022-08-14T22:22:55.815Z,25.90
2022-08-14T22:25:22.946Z,25.90
2022-08-14T22:28:01.234Z,25.80
2022-08-14T22:30:27.863Z,25.70
2022-08-14T22:32:56.630Z,25.70
2022-08-14T22:35:25.128Z,25.70
2022-08-14T22:38:34.783Z,25.60
2022-08-14T22:41:05.648Z,25.60
2022-08-14T22:43:33.525Z,25.60
2022-08-14T22:46:02.735Z,25.50
2022-08-14T22:48:33.164Z,25.60
2022-08-14T22:51:06.250Z,25.60
2022-08-14T22:53:34.070Z,25.50
2022-08-14T22:56:01.117Z,25.30
2022-08-14T22:58:34.798Z,25.30
2022-08-14T23:01:06.596Z,25.30
2022-08-14T23:03:39.974Z,25.30
2022-08-14T23:07:02.607Z,25.20
2022-08-14T23:09:35.408Z,25.20
2022-08-14T23:11:46.662Z,25.30
2022-08-14T23:14:24.176Z,25.20
2022-08-14T23:16:57.453Z,25.20
2022-08-14T23:19:26.764Z,25.30
2022-08-14T23:22:05.362Z,25.30
2022-08-14T23:24:32.193Z,25.30
2022-08-14T23:26:58.796Z,25.30
2022-08-14T23:29:25.502Z,25.30
2022-08-14T23:31:56.709Z,25.20
2022-08-14T23:34:26.506Z,25.20
2022-08-14T23:36:58.029Z,25.20
2022-08-14T23:39:32.404Z,25.20
2022-08-14T23:42:04.484Z,25.30
2022-08-14T23:44:35.092Z,25.30
2022-08-14T23:47:10.988Z,25.20
2022-08-14T23:50:00.410Z,25.20
2022-08-14T23:52:50.942Z,25.20
2022-08-14T23:55:17.599Z,25.20
2022-08-14T23:57:58.453Z,25.20
